Holtsville, NY (11742)

10:55 AM EDT on August 20, 2014 (GMT -0400)
Farmingville | Change Station
CLOSE
Current Station
Personal Weather Station
Location: Farmingville, NY
Elevation: 150 ft
Nearby Weather Stations

Elev 150 ft 40.83 °N, 73.06 °W | Updated 25 minutes ago

Partly Cloudy
Partly Cloudy
74.5 °F
Feels Like 76 °F
N
0.0
Wind Variable Wind from NNE
Gusts 0.0 mph

Today
High -- | Low -- °F
--% Chance of Precip.
Yesterday
High -- | Low -- °F
Precip. -- in
6:07 AM 7:43 PM
Waning Crescent, 21% visible
Pressure 30.00 in
Visibility 10.0 miles
Clouds Few 1500 ft
Heat Index 76 °F
Dew Point 66 °F
Humidity 75%
Rainfall 0.00 in
Snow Depth Not available.
UV 5 out of 12
Pollen 9.10 out of 12
Air Quality Not available.
Flu Activity Not available.
METAR KISP 201356Z 00000KT 10SM FEW015 24/14 A3000 RMK AO2 SLP157 T02390144

More Conditions Fewer Conditions

Pressure 30.00 in
Visibility 10.0 miles
Clouds Few 1500 ft
Heat Index 76 °F
Dew Point 66 °F
Humidity 75%
Rainfall 0.00 in
Snow Depth Not available.
UV 5 out of 12
Pollen 9.10 out of 12
Air Quality Not available.
Flu Activity Not available.
METAR KISP 201356Z 00000KT 10SM FEW015 24/14 A3000 RMK AO2 SLP157 T02390144

More Conditions Fewer Conditions

10-Day Weather Forecast

Almanac

Astronomy

Aug. 20, 2014 Rise Set
Actual Time 6:07 AM EDT 7:43 PM EDT
Civil Twilight 5:38 AM EDT 8:12 PM EDT
Nautical Twilight 5:03 AM EDT 8:46 PM EDT
Astronomical Twilight 4:25 AM EDT 9:24 PM EDT
Moon 1:44 AM EDT 4:26 PM EDT
Length of Visible Light 14h 33m
Length of Day
13h 35m
Tomorrow will be 2m 28s shorter.
Waning Crescent, 21% of the Moon is Illuminated
Today
Waning Crescent
Aug 25
New
Sep 2
First Quarter
Sep 8
Full
Sep 15
Last Quarter

Today's Extremes

State Highs State Lows

Community

WunderPhotos

Upload Photos

1,745,658 photos uploaded!

Nearby

Air Quality

  Air Quality AQ Index Pollutant
Yesterday Good
OZONE
Wednesday Good
OZONE
Wednesday Good
PM2.5

Snow Depth

Station Depth Elevation
No new snow has been reported.

Earthquake Activity

City Distance Mag. Time & Date
Deep River Center, Connecticut 46 miles 2.7 3:09 AM EDT
2014-08-14
Minimum magnitude displayed is 2.5.

Coastal Water Temperatures

Place Temperature
No Stations Reporting

Nearby Weather Stations